ADDS METAR Data INFO
IDs: Format: Raw Decoded Include TAF

Data at: 0302 UTC 21 Oct 2017

KILG 210251Z 32003KT 10SM CLR 12/07 A3024 RMK AO2 SLP239 T01220067 53011
KILG 210151Z 32005KT 10SM CLR 15/06 A3022 RMK AO2 SLP234 T01500056
KILG 210051Z 27005KT 10SM CLR 16/05 A3021 RMK AO2 SLP231 T01560050
KILG 202351Z 24003KT 10SM CLR 18/04 A3021 RMK AO2 SLP228 T01780044 10244 20161 53013
KILG 202251Z 31007KT 10SM CLR 16/04 A3019 RMK AO2 SLP222 T01610039
KILG 202151Z 31006KT 10SM CLR 19/04 A3017 RMK AO2 SLP217 T01940044
KILG 202051Z 31009KT 10SM CLR 23/04 A3017 RMK AO2 SLP216 T02280039 56007
KILG 201951Z 33010KT 10SM CLR 24/03 A3017 RMK AO2 SLP216 T02390033
KILG 201851Z 30010KT 10SM CLR 23/04 A3017 RMK AO2 SLP217 T02330044
KILG 201751Z 34010KT 10SM CLR 23/03 A3019 RMK AO2 SLP223 T02330033 10239 20100 58014
KILG 201651Z 30009KT 10SM CLR 23/02 A3021 RMK AO2 SLP229 T02330022
KILG 201551Z 35007KT 10SM CLR 22/06 A3023 RMK AO2 SLP235 T02170061
KILG 201451Z 34007KT 10SM CLR 21/07 A3023 RMK AO2 SLP237 T02110072 50011
KILG 201351Z 32007KT 10SM CLR 19/11 A3024 RMK AO2 SLP238 T01890106
KILG 201251Z 32006KT 10SM CLR 15/11 A3022 RMK AO2 SLP234 T01500106
KILG 201151Z 33006KT 10SM CLR 10/08 A3020 RMK AO2 SLP226 T01000083 10128 20094 51017
KILG 201051Z 28004KT 10SM CLR 11/08 A3018 RMK AO2 SLP220 T01110078
KILG 200951Z 31004KT 10SM CLR 12/09 A3017 RMK AO2 SLP216 T01170094
KILG 200851Z 32003KT 10SM CLR 12/10 A3015 RMK AO2 SLP209 T01170100 53001
KILG 200751Z 30003KT 10SM CLR 11/10 A3014 RMK AO2 SLP206 T01110100
KILG 200651Z 29004KT 10SM CLR 12/11 A3014 RMK AO2 SLP206 T01170106
KILG 200551Z 28003KT 10SM CLR 11/11 A3014 RMK AO2 SLP207 T01110106 10161 20111 58002
KILG 200451Z 00000KT 10SM CLR 11/10 A3015 RMK AO2 SLP210 T01110100 402220072
KILG 200351Z 00000KT 10SM CLR 12/10 A3016 RMK AO2 SLP212 T01170100
KILG 200251Z 00000KT 10SM CLR 13/10 A3015 RMK AO2 SLP209 T01330100 53002
KILG 200151Z 26003KT 10SM CLR 14/09 A3015 RMK AO2 SLP208 T01390094
KILG 200051Z 21003KT 10SM CLR 16/09 A3014 RMK AO2 SLP205 T01560094
KILG 192351Z 21005KT 10SM CLR 16/09 A3014 RMK AO2 SLP207 T01610094 10222 20161 55000
KILG 192251Z 22004KT 10SM CLR 17/09 A3014 RMK AO2 SLP205 T01720094
KILG 192151Z 24006KT 10SM CLR 19/09 A3013 RMK AO2 SLP204 T01890089
KILG 192051Z 22007KT 10SM CLR 21/08 A3015 RMK AO2 SLP207 T02110078 56021
KILG 191951Z 21009KT 10SM CLR 22/07 A3015 RMK AO2 SLP211 T02170072
KILG 191851Z 21008KT 10SM CLR 22/07 A3017 RMK AO2 SLP218 T02170067
KILG 191751Z 25011KT 10SM CLR 22/07 A3021 RMK AO2 SLP228 T02170067 10217 20072 58025
KILG 191651Z 23011KT 10SM CLR 21/07 A3024 RMK AO2 SLP239 T02060072
KILG 191551Z 26008KT 10SM CLR 19/09 A3027 RMK AO2 SLP250 T01940089